createdAt,value
2018-07-19T00:05:20.288Z,11.25
2018-07-19T00:11:15.277Z,10.96
2018-07-19T00:17:10.255Z,8.4
2018-07-19T00:23:05.282Z,15.04
2018-07-19T00:29:00.294Z,10.81
2018-07-19T00:34:55.282Z,12.58
2018-07-19T00:40:50.275Z,18.45
2018-07-19T00:46:45.275Z,13.3
2018-07-19T00:52:40.294Z,12.96
2018-07-19T00:58:35.305Z,13.29
2018-07-19T01:04:30.310Z,14.57
2018-07-19T01:10:25.281Z,18.93
2018-07-19T01:16:20.316Z,12.11
2018-07-19T01:22:15.296Z,10.8
2018-07-19T01:28:10.323Z,11.13
2018-07-19T01:34:05.327Z,10.06
2018-07-19T01:40:00.357Z,12.36
2018-07-19T01:45:55.313Z,11.89
2018-07-19T01:51:50.336Z,10.35
2018-07-19T01:57:45.337Z,13.2
2018-07-19T02:03:40.355Z,11.04
2018-07-19T02:09:35.349Z,12.62
2018-07-19T02:15:30.339Z,17.3
2018-07-19T02:21:25.360Z,12.09
2018-07-19T02:27:20.362Z,17.49
2018-07-19T02:33:15.346Z,10.7
2018-07-19T02:39:10.362Z,12.37
2018-07-19T02:45:05.384Z,11.86
2018-07-19T02:51:00.417Z,10.37
2018-07-19T02:56:55.385Z,14.73
2018-07-19T03:02:50.366Z,14.45
2018-07-19T03:08:45.375Z,12.28
2018-07-19T03:14:40.439Z,11.37
2018-07-19T03:20:35.389Z,15.44
2018-07-19T03:26:30.428Z,12.62
2018-07-19T03:32:25.429Z,12.33
2018-07-19T03:38:20.404Z,15.15
2018-07-19T03:44:15.404Z,13.95
2018-07-19T03:50:10.411Z,11.59
2018-07-19T03:56:05.405Z,13.2
2018-07-19T04:02:00.541Z,14.17
2018-07-19T04:07:55.417Z,13.77
2018-07-19T04:13:50.442Z,16.56
2018-07-19T04:19:45.418Z,12.89
2018-07-19T04:25:40.418Z,16.35
2018-07-19T04:31:35.488Z,13.69
2018-07-19T04:37:30.441Z,14.22
2018-07-19T04:43:25.437Z,18.24
2018-07-19T04:49:20.429Z,15.9
2018-07-19T04:55:15.483Z,13.86
2018-07-19T05:01:10.459Z,12.49
2018-07-19T05:07:05.458Z,16.33
2018-07-19T05:13:00.462Z,13.39
2018-07-19T05:18:55.458Z,14.64
2018-07-19T05:24:50.450Z,11.84
2018-07-19T05:30:45.492Z,17.64
2018-07-19T05:36:40.494Z,11.75
2018-07-19T05:42:35.465Z,14.7
2018-07-19T05:48:30.504Z,16.67
2018-07-19T05:54:25.507Z,16.4
2018-07-19T06:00:20.483Z,17.96
2018-07-19T06:06:15.503Z,21.88
2018-07-19T06:12:10.515Z,24.5
2018-07-19T06:18:05.510Z,15.11
2018-07-19T06:24:00.477Z,18.26
2018-07-19T06:29:55.502Z,15.22
2018-07-19T06:35:50.495Z,16.73
2018-07-19T06:41:45.530Z,20.78
2018-07-19T06:47:40.513Z,17.89
2018-07-19T06:53:35.494Z,16.54
2018-07-19T06:59:30.507Z,13.57
2018-07-19T07:05:25.511Z,15.05
2018-07-19T07:11:20.590Z,15.65
2018-07-19T07:17:15.516Z,17.58
2018-07-19T07:23:10.509Z,28.79
2018-07-19T07:29:05.584Z,15.51
2018-07-19T07:35:00.537Z,17.32
2018-07-19T07:40:55.536Z,15.95
2018-07-19T07:46:50.531Z,15.14
2018-07-19T07:52:45.549Z,13.43
2018-07-19T07:58:40.533Z,14.71
2018-07-19T08:04:35.547Z,16.55
2018-07-19T08:10:30.559Z,11.53
2018-07-19T08:16:25.551Z,14.16
2018-07-19T08:22:20.588Z,12.59
2018-07-19T08:28:15.572Z,11.29
2018-07-19T08:34:10.567Z,36.91
2018-07-19T08:40:05.596Z,14.52
2018-07-19T08:46:00.580Z,12.39
2018-07-19T08:51:55.572Z,15.5
2018-07-19T08:57:50.580Z,17.91
2018-07-19T09:03:45.592Z,14.74
2018-07-19T09:09:40.629Z,15.32
2018-07-19T09:15:35.600Z,12.65
2018-07-19T09:21:30.581Z,15.93
2018-07-19T09:27:25.605Z,21.53
2018-07-19T09:33:20.610Z,16.16
2018-07-19T09:39:15.611Z,16.08
2018-07-19T09:45:10.612Z,13.33
2018-07-19T09:51:05.608Z,12.1
2018-07-19T09:57:00.616Z,10.71
2018-07-19T10:02:55.612Z,10.22
2018-07-19T10:08:50.682Z,14.26
2018-07-19T10:14:45.622Z,8.27
2018-07-19T10:20:40.706Z,9.75
2018-07-19T10:26:35.653Z,0.41
2018-07-19T10:32:30.706Z,11.54
2018-07-19T10:38:25.733Z,7.92
2018-07-19T10:44:20.719Z,8.85
2018-07-19T10:50:15.654Z,6.05
2018-07-19T10:56:10.675Z,7.89
2018-07-19T11:02:05.655Z,7.9
2018-07-19T11:08:00.683Z,10.59
2018-07-19T11:13:55.692Z,5.52
2018-07-19T11:19:50.687Z,6.3
2018-07-19T11:25:45.720Z,6.99
2018-07-19T11:31:40.674Z,6.78
2018-07-19T11:37:35.723Z,7.84
2018-07-19T11:43:30.682Z,5.85
2018-07-19T11:49:25.675Z,4.93
2018-07-19T11:55:20.724Z,4.5
2018-07-19T12:01:15.721Z,5.24
2018-07-19T12:07:10.703Z,6.52
2018-07-19T12:13:05.724Z,6.63
2018-07-19T12:19:00.684Z,4.29
2018-07-19T12:24:55.711Z,4.83
2018-07-19T12:30:50.743Z,3.99
2018-07-19T12:36:45.760Z,3.28
2018-07-19T12:42:40.851Z,3.2
2018-07-19T12:48:35.716Z,4.29
2018-07-19T12:54:30.769Z,2.44
2018-07-19T13:00:25.801Z,4.34
2018-07-19T13:06:20.725Z,2.43
2018-07-19T13:12:15.728Z,4.54
2018-07-19T13:18:10.727Z,1.87
2018-07-19T13:24:05.804Z,2.52
2018-07-19T13:30:00.760Z,3.47
2018-07-19T13:35:55.761Z,2.96
2018-07-19T13:41:50.747Z,3.2
2018-07-19T13:47:45.741Z,2.28
2018-07-19T13:53:40.801Z,2.1
2018-07-19T13:59:35.840Z,3.12
2018-07-19T14:05:30.752Z,1.82
2018-07-19T14:11:25.777Z,1.68
2018-07-19T14:17:20.778Z,3.05
2018-07-19T14:23:15.769Z,5.18
2018-07-19T14:29:10.792Z,1.72
2018-07-19T14:35:05.900Z,1.87
2018-07-19T14:41:01.029Z,3.68
2018-07-19T14:46:55.796Z,3
2018-07-19T14:52:50.858Z,4.51
2018-07-19T14:58:45.797Z,10.3
2018-07-19T15:04:40.785Z,4.65
2018-07-19T15:10:35.885Z,5.13
2018-07-19T15:16:30.865Z,5.36
2018-07-19T15:22:25.830Z,4.8
2018-07-19T15:28:20.818Z,6.59
2018-07-19T15:34:15.898Z,4.45
2018-07-19T15:40:10.902Z,4.76
2018-07-19T15:46:05.826Z,6.5
2018-07-19T15:52:00.890Z,5.69
2018-07-19T15:57:55.838Z,6.7
2018-07-19T16:03:50.872Z,3.97
2018-07-19T16:09:45.847Z,4.97
2018-07-19T16:15:40.843Z,6.3
2018-07-19T16:21:35.855Z,7.66
2018-07-19T16:27:30.857Z,5.21
2018-07-19T16:33:25.846Z,6.32
2018-07-19T16:39:20.861Z,3.57
2018-07-19T16:45:15.928Z,3.74
2018-07-19T16:51:10.893Z,6.63
2018-07-19T16:57:05.892Z,6.72
2018-07-19T17:03:00.858Z,4.1
2018-07-19T17:08:55.935Z,8.36
2018-07-19T17:14:50.944Z,3.99
2018-07-19T17:20:45.916Z,4.57
2018-07-19T17:26:40.947Z,9.45
2018-07-19T17:32:35.879Z,5.7
2018-07-19T17:38:30.891Z,7.15
2018-07-19T17:44:26.099Z,7.4
2018-07-19T17:50:20.914Z,6.55
2018-07-19T17:56:15.969Z,6.61
2018-07-19T18:02:10.906Z,5.39
2018-07-19T18:08:05.907Z,5.93
2018-07-19T18:14:00.936Z,5.36
2018-07-19T18:19:55.903Z,9.74
2018-07-19T18:25:50.932Z,12.01
2018-07-19T18:31:45.913Z,7.64
2018-07-19T18:37:40.939Z,8.88
2018-07-19T18:43:35.936Z,9.14
2018-07-19T18:49:30.929Z,9.75
2018-07-19T18:55:25.968Z,8.39
2018-07-19T19:01:20.985Z,11.13
2018-07-19T19:07:15.962Z,9.22
2018-07-19T19:13:10.961Z,12.6
2018-07-19T19:19:05.959Z,9.57
2018-07-19T19:25:00.958Z,12.37
2018-07-19T19:30:56.005Z,14.68
2018-07-19T19:36:50.973Z,8.38
2018-07-19T19:42:45.987Z,11.56
2018-07-19T19:48:41.005Z,12.69
2018-07-19T19:54:35.990Z,13.88
2018-07-19T20:00:30.991Z,8.73
2018-07-19T20:06:25.984Z,10.3
2018-07-19T20:12:21.053Z,9.64
2018-07-19T20:18:15.989Z,12.74
2018-07-19T20:24:11.016Z,12.17
2018-07-19T20:30:05.994Z,14.21
2018-07-19T20:36:01.009Z,12.56
2018-07-19T20:41:56.008Z,12.77
2018-07-19T20:47:50.996Z,14.52
2018-07-19T20:53:46.018Z,15.17
2018-07-19T20:59:41.084Z,13.14
2018-07-19T21:05:36.044Z,13.63
2018-07-19T21:11:31.034Z,13.62
2018-07-19T21:17:26.027Z,12.57
2018-07-19T21:23:21.042Z,15.49
2018-07-19T21:29:16.035Z,14.07
2018-07-19T21:35:11.036Z,15.26
2018-07-19T21:41:06.054Z,13.89
2018-07-19T21:47:01.046Z,15.06
2018-07-19T21:52:56.067Z,13.55
2018-07-19T21:58:51.070Z,12.83
2018-07-19T22:04:46.077Z,15.34
2018-07-19T22:10:41.062Z,16.83
2018-07-19T22:16:36.084Z,15.31
2018-07-19T22:22:31.071Z,14.86
2018-07-19T22:28:26.076Z,16.15
2018-07-19T22:34:21.085Z,14.52
2018-07-19T22:40:16.096Z,17.51
2018-07-19T22:46:11.076Z,18.04
2018-07-19T22:52:06.078Z,16.71
2018-07-19T22:58:01.108Z,16.05
2018-07-19T23:03:56.124Z,16.1
2018-07-19T23:09:51.183Z,14.22
2018-07-19T23:15:46.114Z,14.76
2018-07-19T23:21:41.114Z,19.27
2018-07-19T23:27:36.180Z,14.76
2018-07-19T23:33:31.119Z,15.88
2018-07-19T23:39:26.115Z,14.71
2018-07-19T23:45:21.152Z,14.62
2018-07-19T23:51:16.134Z,15.76
2018-07-19T23:57:11.128Z,14.8
